Time;durP1;ratioP1;P1;durP2;ratioP2;P2;SDS_P1;SDS_P2;PMS_P1;PMS_P2;Temp;Humidity;BMP_temperature;BMP_pressure;BME280_temperature;BME280_humidity;BME280_pressure;Samples;Min_cycle;Max_cycle;Signal;HPM_P1;HPM_P2
2023/09/25 00:00:18;;;;;;;10.53;7.03;;;;;;;21.82;83.39;94922.06;5094944;28;20498;-79
2023/09/25 00:02:45;;;;;;;24.00;6.83;;;;;;;21.72;84.65;94931.47;5094782;28;20481;-79
2023/09/25 00:05:12;;;;;;;14.27;6.00;;;;;;;21.80;84.54;94933.97;5094702;28;20534;-80
2023/09/25 00:07:40;;;;;;;12.27;5.70;;;;;;;21.89;84.31;94922.91;5094802;28;20501;-79
2023/09/25 00:10:08;;;;;;;7.97;6.43;;;;;;;21.88;83.31;94931.97;5094524;28;20440;-80
2023/09/25 00:12:35;;;;;;;12.10;6.00;;;;;;;21.96;84.46;94930.97;5059283;28;20491;-80
2023/09/25 00:15:05;;;;;;;7.80;5.57;;;;;;;21.96;83.63;94933.63;5094603;28;20826;-80
2023/09/25 00:17:33;;;;;;;14.77;6.23;;;;;;;21.93;83.45;94934.03;5094594;28;20541;-80
2023/09/25 00:20:00;;;;;;;12.27;7.30;;;;;;;21.68;84.03;94936.38;5094382;28;21000;-80
2023/09/25 00:22:27;;;;;;;17.53;6.73;;;;;;;21.69;83.96;94935.38;5094256;28;20439;-82
2023/09/25 00:24:54;;;;;;;10.97;7.17;;;;;;;21.64;83.99;94929.78;5094143;28;20991;-79
2023/09/25 00:27:20;;;;;;;9.33;5.80;;;;;;;21.74;83.10;94940.13;5094395;28;20441;-79
2023/09/25 00:29:47;;;;;;;17.80;5.83;;;;;;;21.82;81.64;94926.59;5094449;28;20478;-80
2023/09/25 00:32:14;;;;;;;14.40;6.70;;;;;;;21.89;81.70;94938.13;5094118;28;20441;-80
2023/09/25 00:34:42;;;;;;;11.87;6.50;;;;;;;21.73;82.70;94933.97;5094369;28;20450;-80
2023/09/25 00:37:09;;;;;;;15.67;6.73;;;;;;;21.65;82.46;94937.59;5094226;28;20857;-80
2023/09/25 00:39:36;;;;;;;6.60;5.63;;;;;;;21.72;82.48;94929.63;5094098;28;20445;-79
2023/09/25 00:42:03;;;;;;;10.07;7.50;;;;;;;21.83;82.38;94930.91;5094118;28;20455;-80
2023/09/25 00:44:31;;;;;;;7.53;5.83;;;;;;;21.85;81.96;94928.88;5093955;28;20450;-79
2023/09/25 00:46:58;;;;;;;10.30;5.93;;;;;;;21.86;81.97;94925.16;5094370;28;20451;-80
2023/09/25 00:49:25;;;;;;;11.23;7.07;;;;;;;21.87;82.10;94938.34;5093983;28;20504;-80
2023/09/25 00:51:54;;;;;;;14.73;7.20;;;;;;;21.61;83.42;94944.34;5058548;28;20441;-80
2023/09/25 00:54:21;;;;;;;13.50;6.93;;;;;;;21.69;83.50;94935.38;5094000;28;20443;-80
2023/09/25 00:56:49;;;;;;;9.83;6.20;;;;;;;21.68;83.68;94928.34;5094139;28;20440;-80
2023/09/25 00:59:16;;;;;;;11.10;6.13;;;;;;;21.79;83.56;94930.50;5093901;28;20445;-80
2023/09/25 01:01:43;;;;;;;10.70;5.50;;;;;;;21.84;82.24;94937.91;5093165;28;20585;-80
2023/09/25 01:04:10;;;;;;;13.03;7.00;;;;;;;21.81;82.67;94944.47;5093308;28;20442;-80
2023/09/25 01:06:37;;;;;;;10.20;6.53;;;;;;;21.47;83.78;94949.81;5093222;28;20444;-80
2023/09/25 01:09:08;;;;;;;8.27;5.77;;;;;;;21.52;84.02;94940.19;5093353;28;20440;-80
2023/09/25 01:11:35;;;;;;;9.73;5.97;;;;;;;21.56;82.88;94945.97;5093053;28;20449;-79
2023/09/25 01:14:02;;;;;;;7.50;5.70;;;;;;;21.47;83.63;94949.81;5093189;28;20777;-80
2023/09/25 01:16:29;;;;;;;14.93;6.77;;;;;;;21.55;83.98;94939.81;5092513;28;20441;-80
2023/09/25 01:18:57;;;;;;;13.43;6.43;;;;;;;21.63;83.06;94944.16;5093093;28;20451;-79
2023/09/25 01:21:24;;;;;;;7.90;6.37;;;;;;;21.65;83.07;94947.44;5074019;28;20483;-80
2023/09/25 01:23:52;;;;;;;13.53;7.07;;;;;;;21.71;82.89;94951.22;5093411;28;20442;-80
2023/09/25 01:26:19;;;;;;;13.23;6.90;;;;;;;21.65;82.50;94945.59;5093458;28;20441;-79
2023/09/25 01:28:46;;;;;;;8.00;6.93;;;;;;;21.73;82.12;94941.16;5092592;28;20971;-80
2023/09/25 01:31:13;;;;;;;10.27;5.73;;;;;;;21.60;80.84;94952.56;5093095;28;20433;-80
2023/09/25 01:33:41;;;;;;;13.90;6.30;;;;;;;21.42;80.55;94961.09;5093296;28;20441;-79
2023/09/25 01:36:11;;;;;;;13.30;5.90;;;;;;;21.40;80.18;94968.47;5093165;28;20446;-80
2023/09/25 01:38:38;;;;;;;9.40;5.77;;;;;;;21.43;79.00;94981.44;5093092;28;20794;-79
2023/09/25 01:41:06;;;;;;;7.43;5.60;;;;;;;21.45;79.70;94968.72;5093124;28;20486;-80
2023/09/25 01:43:33;;;;;;;9.53;5.10;;;;;;;21.20;80.05;94970.13;5093047;28;20446;-81
2023/09/25 01:45:59;;;;;;;11.30;5.67;;;;;;;21.13;79.73;94972.75;5092731;28;20449;-80
2023/09/25 01:48:26;;;;;;;9.63;5.43;;;;;;;21.24;78.79;94958.06;5092771;28;20538;-79
2023/09/25 01:50:53;;;;;;;7.27;5.50;;;;;;;21.25;78.17;94957.88;5092981;28;20443;-80
2023/09/25 01:53:22;;;;;;;13.57;6.33;;;;;;;21.35;76.86;94981.56;5092842;28;20453;-80
2023/09/25 01:55:49;;;;;;;4.80;4.40;;;;;;;21.42;77.21;94977.13;5092789;28;20923;-79
2023/09/25 01:58:17;;;;;;;5.57;4.97;;;;;;;21.36;76.86;94979.72;5092829;28;20442;-80
2023/09/25 02:00:44;;;;;;;6.33;5.70;;;;;;;21.39;76.70;94985.47;5092444;28;20495;-79
2023/09/25 02:03:11;;;;;;;8.70;5.47;;;;;;;21.31;79.11;94985.63;5092651;28;20436;-79
2023/09/25 02:05:38;;;;;;;8.23;5.90;;;;;;;21.33;79.13;94989.75;5092737;28;20453;-79
2023/09/25 02:08:05;;;;;;;8.70;5.50;;;;;;;21.33;78.28;94988.94;5092878;28;20453;-79
2023/09/25 02:10:33;;;;;;;7.87;5.37;;;;;;;21.32;78.74;94989.94;5092612;28;20457;-79
2023/09/25 02:13:00;;;;;;;6.50;5.10;;;;;;;21.33;79.26;94989.75;5092547;28;20923;-79
2023/09/25 02:15:28;;;;;;;10.80;5.83;;;;;;;21.21;78.98;94995.78;5092358;28;20503;-79
2023/09/25 02:17:55;;;;;;;16.43;6.57;;;;;;;21.25;79.14;94994.41;5092663;28;20449;-80
2023/09/25 02:20:22;;;;;;;8.43;5.43;;;;;;;21.17;80.23;94999.88;5092336;28;20491;-79
2023/09/25 02:22:48;;;;;;;8.57;5.80;;;;;;;20.91;81.57;94995.94;5092499;28;20797;-79
2023/09/25 02:25:16;;;;;;;9.40;6.90;;;;;;;20.90;81.15;94993.47;5092503;28;20525;-79
2023/09/25 02:27:43;;;;;;;7.00;6.30;;;;;;;20.83;82.40;94992.59;5092699;28;20435;-79
2023/09/25 02:30:11;;;;;;;13.20;6.33;;;;;;;20.57;81.99;95001.97;5076637;28;20479;-80
2023/09/25 02:32:41;;;;;;;8.80;6.47;;;;;;;20.68;83.11;94995.28;5060846;28;20528;-79
2023/09/25 02:35:09;;;;;;;8.00;6.93;;;;;;;20.61;82.51;94997.91;5096126;28;20883;-80
2023/09/25 02:37:37;;;;;;;10.20;7.23;;;;;;;20.64;82.39;95004.69;5096032;28;21305;-80
2023/09/25 02:40:06;;;;;;;14.90;6.80;;;;;;;20.79;82.48;95008.13;5096017;28;20985;-80
2023/09/25 02:42:32;;;;;;;8.67;6.37;;;;;;;20.77;82.91;95007.47;5061003;28;20440;-79
2023/09/25 02:44:59;;;;;;;9.03;6.40;;;;;;;20.84;81.83;95012.91;5096192;28;20451;-80
2023/09/25 02:47:26;;;;;;;8.20;7.37;;;;;;;20.55;82.89;95011.16;5096076;28;20457;-80
2023/09/25 02:49:55;;;;;;;14.40;7.90;;;;;;;20.43;84.14;95018.81;5096032;28;20943;-80
2023/09/25 02:52:21;;;;;;;8.23;7.43;;;;;;;20.36;84.57;95015.22;5060717;28;20451;-79
2023/09/25 02:54:48;;;;;;;9.23;7.47;;;;;;;20.33;85.39;95005.75;5095773;28;20448;-79
2023/09/25 02:57:15;;;;;;;12.67;8.33;;;;;;;20.29;85.60;95012.47;5095796;28;20451;-79
2023/09/25 02:59:42;;;;;;;10.07;8.20;;;;;;;20.29;86.40;95011.66;5095820;28;20937;-81
2023/09/25 03:02:08;;;;;;;12.10;7.93;;;;;;;20.23;85.41;95004.38;5095941;28;20502;-80
2023/09/25 03:04:37;;;;;;;13.27;9.47;;;;;;;20.21;85.66;95004.56;5095801;28;20463;-80
2023/09/25 03:07:05;;;;;;;13.43;8.90;;;;;;;20.31;85.32;95021.09;5095621;28;21011;-80
2023/09/25 03:09:32;;;;;;;14.90;8.80;;;;;;;20.31;85.25;95017.63;5095487;28;20448;-81
2023/09/25 03:11:59;;;;;;;10.97;9.77;;;;;;;20.29;85.84;95016.97;5095852;28;20436;-78
2023/09/25 03:14:25;;;;;;;12.10;9.50;;;;;;;20.27;84.80;95019.84;5095642;28;20449;-79
2023/09/25 03:16:52;;;;;;;9.10;8.20;;;;;;;20.27;84.52;95014.50;5095346;28;20953;-79
2023/09/25 03:19:19;;;;;;;13.23;10.00;;;;;;;20.27;85.15;95033.16;5091455;28;20968;-80
2023/09/25 03:21:46;;;;;;;16.17;10.40;;;;;;;20.19;85.60;95029.75;5095332;28;20483;-79
2023/09/25 03:24:14;;;;;;;11.90;10.10;;;;;;;20.25;85.34;95037.03;5095530;28;20451;-79
2023/09/25 03:26:41;;;;;;;13.20;10.33;;;;;;;20.22;87.04;95030.19;5095291;28;20449;-79
2023/09/25 03:29:08;;;;;;;15.90;11.23;;;;;;;20.23;86.54;95034.50;5095351;28;20479;-80
2023/09/25 03:31:35;;;;;;;15.57;11.40;;;;;;;20.33;86.03;95032.41;5095361;28;20448;-80
2023/09/25 03:34:01;;;;;;;14.93;10.63;;;;;;;20.25;86.52;95039.69;5095190;28;20440;-80
2023/09/25 03:36:28;;;;;;;15.37;10.77;;;;;;;20.29;86.53;95028.47;5095204;28;20448;-80
2023/09/25 03:38:56;;;;;;;14.77;12.00;;;;;;;20.29;87.24;95041.78;5095013;28;20440;-80
2023/09/25 03:41:24;;;;;;;14.90;10.67;;;;;;;20.17;87.42;95050.44;5094914;28;20479;-81
2023/09/25 03:43:51;;;;;;;18.83;11.97;;;;;;;20.01;87.86;95046.97;5095012;28;20777;-82
2023/09/25 03:46:18;;;;;;;18.77;11.47;;;;;;;19.89;88.98;95042.25;5094980;28;20451;-80
2023/09/25 03:48:45;;;;;;;14.77;11.30;;;;;;;19.99;89.03;95048.16;5059176;28;20455;-79
2023/09/25 03:51:12;;;;;;;18.07;11.80;;;;;;;20.02;88.91;95040.63;5094676;28;20448;-79
2023/09/25 03:53:39;;;;;;;21.43;14.03;;;;;;;19.83;90.06;95043.81;5094577;28;20444;-79
2023/09/25 03:56:06;;;;;;;17.40;12.40;;;;;;;19.84;90.22;95041.97;5094990;28;20795;-80
2023/09/25 03:58:34;;;;;;;46.50;35.87;;;;;;;19.75;91.58;95049.25;5094711;28;20997;-79
2023/09/25 04:01:01;;;;;;;18.10;14.70;;;;;;;19.65;92.04;95052.16;5094683;28;20490;-80
2023/09/25 04:03:27;;;;;;;16.37;12.40;;;;;;;19.70;91.86;95043.63;5094433;28;20452;-80
2023/09/25 04:05:54;;;;;;;13.93;12.03;;;;;;;19.63;91.89;95048.00;5094419;28;20481;-79
2023/09/25 04:08:21;;;;;;;15.30;10.50;;;;;;;19.62;92.58;95055.19;5058956;28;20448;-80
2023/09/25 04:10:48;;;;;;;29.50;23.63;;;;;;;19.64;94.08;95050.50;5058839;28;20447;-79
2023/09/25 04:13:16;;;;;;;20.17;13.30;;;;;;;19.70;92.88;95052.47;5094462;28;20445;-79
2023/09/25 04:15:44;;;;;;;18.17;14.30;;;;;;;19.77;92.71;95061.38;5094063;28;20465;-79
2023/09/25 04:18:12;;;;;;;22.13;14.33;;;;;;;19.90;91.83;95050.06;5094427;28;20444;-79
2023/09/25 04:20:39;;;;;;;16.70;13.10;;;;;;;19.92;91.75;95055.19;5093891;28;20447;-80
2023/09/25 04:23:06;;;;;;;21.80;14.90;;;;;;;19.77;92.33;95064.03;5094356;28;20439;-80
2023/09/25 04:25:32;;;;;;;16.33;12.70;;;;;;;19.86;92.19;95053.28;5070801;28;20444;-80
2023/09/25 04:28:00;;;;;;;22.90;14.20;;;;;;;19.67;92.90;95062.66;5074475;28;20928;-80
2023/09/25 04:30:27;;;;;;;17.20;13.40;;;;;;;19.49;94.77;95069.09;5040941;28;21014;-80
2023/09/25 04:32:56;;;;;;;16.83;12.63;;;;;;;19.52;94.58;95062.56;5094333;28;20800;-79
2023/09/25 04:35:24;;;;;;;23.73;14.70;;;;;;;19.45;95.45;95066.97;5096372;28;20442;-80
2023/09/25 04:37:51;;;;;;;24.97;16.40;;;;;;;19.31;96.37;95059.75;5095216;28;20442;-79
2023/09/25 04:40:30;;;;;;;22.37;15.63;;;;;;;19.50;96.32;95061.94;5093092;28;20439;-79
2023/09/25 04:42:58;;;;;;;25.57;16.67;;;;;;;19.60;95.62;95065.19;5091575;28;20567;-78
2023/09/25 04:45:25;;;;;;;25.43;17.80;;;;;;;19.70;95.34;95067.59;5093515;28;20429;-78
2023/09/25 04:47:52;;;;;;;34.00;19.70;;;;;;;19.89;94.63;95068.88;5093299;28;20457;-79
2023/09/25 04:50:22;;;;;;;28.67;18.47;;;;;;;19.98;93.80;95063.31;5093327;28;20462;-79
2023/09/25 04:52:49;;;;;;;31.70;16.30;;;;;;;20.01;93.52;95062.94;5065060;28;20436;-79
2023/09/25 04:55:16;;;;;;;25.80;18.20;;;;;;;20.13;93.28;95063.28;5093500;28;20519;-78
2023/09/25 04:57:45;;;;;;;31.37;17.77;;;;;;;20.25;93.14;95056.50;5093538;28;20913;-78
2023/09/25 05:00:16;;;;;;;36.73;20.67;;;;;;;20.34;92.89;95050.06;5093725;28;20443;-79
2023/09/25 05:02:45;;;;;;;25.90;16.13;;;;;;;20.36;93.59;95056.03;5093323;28;20484;-80
2023/09/25 05:05:12;;;;;;;26.93;18.33;;;;;;;20.38;94.09;95063.84;5093478;28;20441;-80
2023/09/25 05:07:41;;;;;;;25.00;16.50;;;;;;;20.47;95.32;95059.25;5093248;28;20452;-80
2023/09/25 05:10:09;;;;;;;25.87;16.00;;;;;;;20.35;94.67;95053.53;5074642;28;20480;-81
2023/09/25 05:12:37;;;;;;;29.43;18.20;;;;;;;20.40;94.46;95068.00;5093108;28;20444;-80
2023/09/25 05:15:05;;;;;;;30.70;18.30;;;;;;;20.29;93.43;95070.28;5070181;28;20460;-80
2023/09/25 05:17:32;;;;;;;28.20;17.77;;;;;;;20.28;93.13;95079.28;5073854;28;20787;-80
2023/09/25 05:19:59;;;;;;;23.43;16.63;;;;;;;20.29;93.13;95081.78;5077450;28;20891;-79
2023/09/25 05:22:26;;;;;;;27.03;17.87;;;;;;;20.22;93.24;95080.84;5092825;28;20541;-80
2023/09/25 05:24:55;;;;;;;25.50;18.80;;;;;;;20.22;93.93;95085.34;5092646;28;20480;-79
2023/09/25 05:27:22;;;;;;;26.03;17.90;;;;;;;20.08;94.66;95087.00;5092930;28;20442;-79
2023/09/25 05:29:49;;;;;;;20.77;16.60;;;;;;;19.94;96.08;95090.47;5079145;28;20980;-80
2023/09/25 05:32:16;;;;;;;24.00;17.10;;;;;;;19.74;97.04;95095.53;5092899;28;20445;-80
2023/09/25 05:34:43;;;;;;;25.50;15.80;;;;;;;19.68;96.98;95098.91;5092324;28;20885;-79
2023/09/25 05:37:09;;;;;;;21.67;15.27;;;;;;;19.59;97.61;95100.78;5093009;28;20432;-79
2023/09/25 05:39:36;;;;;;;23.23;16.33;;;;;;;19.54;98.32;95097.03;5092762;28;20448;-79
2023/09/25 05:42:04;;;;;;;22.23;15.23;;;;;;;19.71;98.23;95104.69;5092805;28;20483;-79
2023/09/25 05:44:31;;;;;;;18.57;14.77;;;;;;;19.86;96.65;95112.69;5088891;28;20965;-82
2023/09/25 05:46:58;;;;;;;17.27;14.23;;;;;;;19.99;96.25;95110.25;5086992;28;20448;-81
2023/09/25 05:49:25;;;;;;;19.27;13.10;;;;;;;20.29;94.85;95110.25;5040824;28;20443;-81
2023/09/25 05:51:53;;;;;;;20.47;13.27;;;;;;;20.23;93.81;95125.13;5089158;28;20441;-80
2023/09/25 05:54:20;;;;;;;24.20;13.13;;;;;;;20.30;93.60;95110.06;5092584;28;20447;-82
2023/09/25 05:56:47;;;;;;;17.33;13.30;;;;;;;20.39;92.71;95119.63;5074546;28;20462;-81
2023/09/25 05:59:16;;;;;;;15.43;13.17;;;;;;;20.41;92.72;95114.97;5072873;28;20450;-84
2023/09/25 06:01:43;;;;;;;16.83;12.07;;;;;;;20.60;93.20;95110.09;5081484;28;20484;-80
2023/09/25 06:04:10;;;;;;;21.47;13.77;;;;;;;20.59;92.28;95124.44;5095334;28;20463;-84
2023/09/25 06:06:37;;;;;;;17.20;13.47;;;;;;;20.57;92.41;95124.63;5083363;28;20474;-82
2023/09/25 06:09:08;;;;;;;20.40;11.63;;;;;;;20.44;92.67;95113.75;5093679;28;20434;-82
2023/09/25 06:11:38;;;;;;;13.90;11.07;;;;;;;20.36;93.70;95133.31;5085892;28;20453;-81
2023/09/25 06:14:05;;;;;;;30.63;14.33;;;;;;;20.50;93.88;95129.00;5096986;28;20481;-81
2023/09/25 06:16:33;;;;;;;19.37;12.30;;;;;;;20.48;93.46;95135.53;5096610;28;20993;-83
2023/09/25 06:19:00;;;;;;;16.20;14.23;;;;;;;20.61;93.63;95133.06;5096428;28;20456;-81
2023/09/25 06:21:27;;;;;;;19.20;14.10;;;;;;;20.57;93.19;95137.13;5096206;28;20957;-81
2023/09/25 06:23:53;;;;;;;18.60;12.83;;;;;;;20.67;92.65;95137.66;5096414;28;20486;-83
2023/09/25 06:26:20;;;;;;;16.93;12.47;;;;;;;20.77;91.91;95143.50;5096040;28;20451;-80
2023/09/25 06:28:47;;;;;;;17.70;12.40;;;;;;;20.83;92.27;95142.78;5095925;28;20473;-81
2023/09/25 06:31:16;;;;;;;18.57;12.43;;;;;;;21.06;91.04;95147.13;5095861;28;20451;-82
2023/09/25 06:33:45;;;;;;;22.43;13.73;;;;;;;21.28;90.20;95149.69;5095968;28;20462;-81
2023/09/25 06:36:12;;;;;;;16.43;12.90;;;;;;;21.50;89.63;95150.53;5096230;28;20441;-82
2023/09/25 06:38:39;;;;;;;18.70;13.00;;;;;;;21.40;87.71;95160.69;5096247;28;20438;-81
2023/09/25 06:41:06;;;;;;;20.23;13.10;;;;;;;21.48;88.96;95155.22;5095905;28;20938;-81
2023/09/25 06:43:32;;;;;;;19.60;14.57;;;;;;;21.55;88.43;95158.78;5095701;28;21000;-82
2023/09/25 06:45:59;;;;;;;25.60;13.67;;;;;;;21.41;88.00;95159.69;5095896;28;20447;-83
2023/09/25 06:48:26;;;;;;;26.20;13.43;;;;;;;21.48;86.97;95162.41;5095738;28;20443;-83
2023/09/25 06:50:55;;;;;;;19.07;13.83;;;;;;;21.62;86.50;95165.00;5095532;28;20477;-82
2023/09/25 06:53:22;;;;;;;21.83;14.30;;;;;;;21.81;86.28;95166.22;5095602;28;20434;-81
2023/09/25 06:55:48;;;;;;;17.30;12.80;;;;;;;21.87;83.71;95172.63;5095550;28;20459;-82
2023/09/25 06:58:15;;;;;;;23.50;14.67;;;;;;;21.96;84.33;95172.28;5076355;28;20433;-82
2023/09/25 07:00:46;;;;;;;22.03;15.40;;;;;;;22.40;82.63;95170.38;5095183;28;20443;-81
2023/09/25 07:03:13;;;;;;;22.07;14.67;;;;;;;22.91;81.57;95178.13;5095025;28;20575;-82
2023/09/25 07:05:40;;;;;;;18.40;12.43;;;;;;;23.03;77.56;95190.72;5095166;28;20456;-81
2023/09/25 07:08:09;;;;;;;22.40;14.70;;;;;;;23.29;78.83;95179.28;5095383;28;20477;-82
2023/09/25 07:10:35;;;;;;;20.27;13.73;;;;;;;23.68;74.84;95183.94;5095029;28;20434;-82
2023/09/25 07:13:03;;;;;;;21.73;14.43;;;;;;;23.59;73.68;95184.34;5095111;28;20455;-81
2023/09/25 07:15:30;;;;;;;18.47;13.43;;;;;;;23.36;73.32;95184.66;5094104;28;20657;-82
2023/09/25 07:17:57;;;;;;;12.80;10.37;;;;;;;23.03;73.87;95185.38;5095107;28;20446;-82
2023/09/25 07:20:25;;;;;;;17.17;13.73;;;;;;;22.70;76.73;95179.00;5095379;28;20443;-82
2023/09/25 07:22:52;;;;;;;19.27;14.40;;;;;;;22.88;75.66;95183.88;5094903;28;20586;-83
2023/09/25 07:25:20;;;;;;;18.77;14.30;;;;;;;22.93;75.65;95179.56;5094958;28;20496;-82
2023/09/25 07:27:47;;;;;;;18.10;13.30;;;;;;;23.13;72.94;95179.63;5059223;28;20477;-82
2023/09/25 07:30:14;;;;;;;16.53;12.47;;;;;;;22.95;73.16;95182.88;5075466;28;20476;-81
2023/09/25 07:32:42;;;;;;;16.60;13.50;;;;;;;23.17;72.09;95191.63;5094948;28;20441;-82
2023/09/25 07:35:10;;;;;;;14.57;11.33;;;;;;;22.98;71.05;95187.81;5094815;28;20449;-81
2023/09/25 07:37:37;;;;;;;12.37;11.07;;;;;;;22.82;72.00;95188.16;5094875;28;20451;-82
2023/09/25 07:40:08;;;;;;;15.13;11.80;;;;;;;22.65;72.69;95198.31;5095563;28;20525;-81
2023/09/25 07:42:38;;;;;;;13.63;10.53;;;;;;;22.81;71.86;95198.03;5094464;28;20486;-85
2023/09/25 07:45:05;;;;;;;15.00;11.43;;;;;;;23.00;70.56;95195.66;5094694;28;20467;-83
2023/09/25 07:47:32;;;;;;;16.30;11.60;;;;;;;23.03;70.77;95200.59;5094599;28;20444;-82
2023/09/25 07:49:59;;;;;;;12.33;10.30;;;;;;;23.23;69.87;95198.03;5094455;28;20449;-81
2023/09/25 07:52:26;;;;;;;11.90;9.60;;;;;;;23.34;69.78;95197.44;5094196;28;20449;-82
2023/09/25 07:54:53;;;;;;;11.87;9.33;;;;;;;23.55;68.27;95199.97;5093939;28;20929;-83
2023/09/25 07:57:21;;;;;;;12.97;8.23;;;;;;;23.56;67.33;95211.53;5094296;28;20445;-79
2023/09/25 07:59:50;;;;;;;11.83;9.30;;;;;;;23.35;68.93;95209.78;5094216;28;20450;-84
2023/09/25 08:02:19;;;;;;;11.53;9.97;;;;;;;23.38;65.81;95204.03;5058261;28;20853;-82
2023/09/25 08:04:46;;;;;;;13.00;10.20;;;;;;;23.35;67.62;95205.25;5094243;28;20508;-82
2023/09/25 08:07:13;;;;;;;9.23;8.23;;;;;;;23.58;67.36;95202.28;5094594;28;20473;-81
2023/09/25 08:09:40;;;;;;;10.07;9.00;;;;;;;23.73;66.20;95202.09;5093829;28;20438;-83
2023/09/25 08:12:06;;;;;;;10.10;5.97;;;;;;;23.55;64.54;95204.50;5094395;28;20513;-81
2023/09/25 08:14:33;;;;;;;9.40;7.50;;;;;;;23.58;65.77;95201.44;5094238;28;20443;-82
2023/09/25 08:17:02;;;;;;;8.37;7.20;;;;;;;23.55;64.46;95199.16;5075004;28;20446;-82
2023/09/25 08:19:29;;;;;;;8.93;7.30;;;;;;;23.44;65.76;95198.72;5093661;28;20447;-82
2023/09/25 08:21:55;;;;;;;9.60;7.90;;;;;;;23.56;65.19;95203.50;5093641;28;20435;-83
2023/09/25 08:24:22;;;;;;;8.20;7.40;;;;;;;23.66;64.67;95202.06;5093685;28;20443;-81
2023/09/25 08:26:49;;;;;;;12.63;7.33;;;;;;;23.64;63.69;95209.50;5093716;28;20447;-78
2023/09/25 08:29:16;;;;;;;7.63;6.93;;;;;;;23.25;63.55;95196.78;5093574;28;20478;-84
2023/09/25 08:31:44;;;;;;;15.03;10.07;;;;;;;23.56;64.54;95195.47;5093485;28;20779;-82
2023/09/25 08:34:12;;;;;;;7.63;6.60;;;;;;;23.86;63.75;95195.94;5093547;28;20450;-81
2023/09/25 08:36:39;;;;;;;7.30;6.60;;;;;;;24.00;62.46;95195.75;5093255;28;20513;-81
2023/09/25 08:39:10;;;;;;;10.40;7.20;;;;;;;24.06;62.46;95196.78;5093262;28;20452;-81
2023/09/25 08:41:40;;;;;;;7.37;6.53;;;;;;;24.05;62.31;95201.31;5058576;28;20523;-81
2023/09/25 08:44:08;;;;;;;11.13;7.90;;;;;;;24.10;62.53;95196.16;5093707;28;20516;-81
2023/09/25 08:46:34;;;;;;;12.70;7.13;;;;;;;24.14;62.34;95199.25;5093498;28;20800;-82
2023/09/25 08:49:02;;;;;;;8.83;6.93;;;;;;;24.10;62.04;95193.47;5093356;28;20440;-81
2023/09/25 08:51:35;;;;;;;10.03;6.87;;;;;;;24.00;60.96;95187.72;5093291;28;20527;-80
2023/09/25 08:54:03;;;;;;;10.97;7.00;;;;;;;24.02;60.96;95190.19;5093412;28;20447;-85
2023/09/25 08:56:32;;;;;;;8.80;7.10;;;;;;;23.87;61.91;95187.69;5093022;28;20987;-82
2023/09/25 08:59:01;;;;;;;7.33;6.00;;;;;;;23.75;63.11;95187.47;5093194;28;20538;-82
2023/09/25 09:01:28;;;;;;;8.43;5.80;;;;;;;23.41;63.02;95188.38;5092853;28;20803;-83
2023/09/25 09:03:55;;;;;;;9.80;6.17;;;;;;;23.22;64.00;95186.47;5092742;28;20487;-81
2023/09/25 09:06:22;;;;;;;7.80;6.03;;;;;;;23.19;64.15;95189.56;5092964;28;20497;-82
2023/09/25 09:08:52;;;;;;;9.17;6.53;;;;;;;23.03;65.00;95188.03;5093124;28;20443;-81
2023/09/25 09:11:21;;;;;;;7.07;5.70;;;;;;;23.02;64.62;95189.06;5092924;28;20446;-80
2023/09/25 09:13:49;;;;;;;7.77;6.60;;;;;;;23.00;64.95;95179.59;5092634;28;20477;-82
2023/09/25 09:16:17;;;;;;;13.77;6.70;;;;;;;23.10;64.36;95180.03;5092990;28;20888;-81
2023/09/25 09:18:45;;;;;;;5.80;5.20;;;;;;;23.01;64.84;95186.59;5092878;28;20534;-81
2023/09/25 09:21:23;;;;;;;17.00;6.53;;;;;;;23.02;65.24;95189.06;5092846;28;20451;-82
2023/09/25 09:23:53;;;;;;;10.93;6.77;;;;;;;22.84;65.51;95184.28;5092445;28;20489;-82
2023/09/25 09:26:21;;;;;;;10.13;8.23;;;;;;;22.89;65.23;95182.84;5092734;28;20447;-80
2023/09/25 09:28:48;;;;;;;13.77;10.00;;;;;;;23.01;66.40;95181.25;5092464;28;20478;-82
2023/09/25 09:31:17;;;;;;;17.70;13.60;;;;;;;22.98;65.47;95182.47;5092876;28;20476;-82
2023/09/25 09:33:44;;;;;;;8.10;6.13;;;;;;;22.73;65.21;95195.47;5093162;28;20478;-82
2023/09/25 09:36:13;;;;;;;8.30;6.80;;;;;;;22.67;65.67;95187.44;5092669;28;20441;-81
2023/09/25 09:38:41;;;;;;;9.67;5.93;;;;;;;22.76;64.78;95189.72;5092038;28;20937;-85
2023/09/25 09:41:10;;;;;;;6.60;6.00;;;;;;;22.95;65.69;95192.75;5073539;28;20447;-81
2023/09/25 09:43:37;;;;;;;8.83;6.17;;;;;;;23.09;65.08;95184.56;5092496;28;20509;-82
2023/09/25 09:46:04;;;;;;;9.20;6.40;;;;;;;23.17;65.55;95179.06;5092650;28;20446;-82
2023/09/25 09:48:32;;;;;;;8.60;6.67;;;;;;;22.96;62.78;95179.16;5092474;28;20446;-84
2023/09/25 09:51:03;;;;;;;7.03;6.33;;;;;;;23.14;64.67;95186.66;5092390;28;20442;-82
2023/09/25 09:53:35;;;;;;;6.73;6.13;;;;;;;23.31;65.90;95181.75;5092433;28;20447;-82
2023/09/25 09:56:02;;;;;;;11.10;6.20;;;;;;;23.45;63.82;95178.94;5092336;28;20442;-81
2023/09/25 09:58:31;;;;;;;6.77;6.00;;;;;;;23.53;63.12;95180.59;5092304;28;20497;-82
2023/09/25 10:01:01;;;;;;;7.07;5.50;;;;;;;23.56;63.78;95179.38;5092652;28;20477;-81
2023/09/25 10:03:29;;;;;;;6.50;5.90;;;;;;;23.47;64.44;95179.56;5073807;28;20505;-82
2023/09/25 10:05:56;;;;;;;10.90;5.90;;;;;;;23.23;64.32;95177.41;5092375;28;20446;-81
2023/09/25 10:08:23;;;;;;;6.93;6.03;;;;;;;23.13;64.20;95187.66;5092019;28;20446;-84
2023/09/25 10:10:51;;;;;;;10.03;6.00;;;;;;;22.95;63.02;95182.03;5092404;28;20445;-84
2023/09/25 10:13:22;;;;;;;7.80;5.63;;;;;;;22.96;63.97;95183.69;5092195;28;20448;-82
2023/09/25 10:15:57;;;;;;;10.73;5.20;;;;;;;22.96;63.21;95175.66;5092253;28;20462;-83
2023/09/25 10:18:26;;;;;;;7.43;5.30;;;;;;;23.04;63.76;95179.00;5091885;28;20789;-82
2023/09/25 10:21:02;;;;;;;7.57;5.70;;;;;;;23.19;64.77;95173.50;5092060;28;20438;-81
2023/09/25 10:23:30;;;;;;;6.93;6.27;;;;;;;23.16;62.69;95180.09;5092634;28;20493;-82
2023/09/25 10:26:02;;;;;;;7.57;4.60;;;;;;;23.27;61.64;95181.34;5092178;28;20449;-83
2023/09/25 10:28:30;;;;;;;8.30;5.70;;;;;;;23.34;62.50;95171.47;5091648;28;20551;-84
2023/09/25 10:30:59;;;;;;;6.70;5.53;;;;;;;23.43;63.42;95167.59;5073014;28;20436;-82
2023/09/25 10:33:28;;;;;;;15.20;6.17;;;;;;;23.61;63.59;95174.25;5091776;28;20455;-83
2023/09/25 10:36:01;;;;;;;7.97;5.37;;;;;;;23.53;62.23;95169.06;5091968;28;20969;-81
2023/09/25 10:38:31;;;;;;;8.30;5.40;;;;;;;23.53;61.71;95174.41;5092556;28;20454;-81
2023/09/25 10:41:02;;;;;;;8.30;6.10;;;;;;;23.60;61.26;95175.28;5092318;28;21017;-84
2023/09/25 10:43:29;;;;;;;5.60;4.93;;;;;;;23.62;59.59;95157.97;5093018;28;20518;-85
2023/09/25 10:45:58;;;;;;;11.77;6.17;;;;;;;23.49;60.06;95176.69;5092010;28;20450;-84
2023/09/25 10:48:26;;;;;;;6.83;6.13;;;;;;;23.53;60.93;95171.72;5092079;28;20810;-81
2023/09/25 10:50:53;;;;;;;5.53;4.93;;;;;;;23.46;60.64;95175.22;5094638;28;20438;-82
2023/09/25 10:53:21;;;;;;;8.57;5.50;;;;;;;23.41;60.17;95174.16;5095561;28;20469;-83
2023/09/25 10:55:49;;;;;;;7.20;5.47;;;;;;;23.29;60.19;95167.75;5095836;28;20442;-79
2023/09/25 10:58:17;;;;;;;6.67;5.50;;;;;;;23.31;61.38;95174.56;5095449;28;20440;-82
2023/09/25 11:00:46;;;;;;;5.50;4.80;;;;;;;23.42;62.40;95157.09;5095561;28;20534;-85
2023/09/25 11:03:14;;;;;;;7.20;4.93;;;;;;;23.36;63.04;95169.41;5076607;28;20486;-81
2023/09/25 11:05:41;;;;;;;5.53;5.00;;;;;;;23.38;62.18;95156.63;5095499;28;20450;-79
2023/09/25 11:08:13;;;;;;;6.70;6.00;;;;;;;23.36;63.11;95169.41;5095304;28;20470;-82
2023/09/25 11:10:40;;;;;;;6.37;5.37;;;;;;;23.46;63.76;95163.69;5095603;28;20550;-82
2023/09/25 11:13:07;;;;;;;9.50;5.67;;;;;;;23.61;62.19;95160.84;5095392;28;20481;-81
2023/09/25 11:15:37;;;;;;;5.40;4.90;;;;;;;23.72;61.62;95163.78;5095516;28;20440;-83
2023/09/25 11:18:07;;;;;;;7.20;5.63;;;;;;;23.68;63.16;95164.34;5059347;28;20431;-81
2023/09/25 11:20:37;;;;;;;7.67;6.30;;;;;;;23.67;63.10;95160.03;5095122;28;20777;-82
2023/09/25 11:23:07;;;;;;;10.70;5.80;;;;;;;23.67;61.70;95157.34;5094839;28;20807;-84
2023/09/25 11:25:42;;;;;;;6.17;5.33;;;;;;;23.58;61.64;95161.25;5094757;28;20440;-82